Time;durP1;ratioP1;P1;durP2;ratioP2;P2;SDS_P1;SDS_P2;PMS_P1;PMS_P2;Temp;Humidity;BMP_temperature;BMP_pressure;BME280_temperature;BME280_humidity;BME280_pressure;Samples;Min_cycle;Max_cycle;Signal;HPM_P1;HPM_P2
2021/11/16 00:01:36;;;;;;;;;;;;;;;6.59;87.75;99301.47;1749640;82;20546;-96
2021/11/16 00:03:56;;;;;;;;;;;;;;;6.58;87.75;99300.63;1749553;81;20171;-96
2021/11/16 00:06:23;;;;;;;;;;;;;;;6.63;87.74;99306.94;1743430;81;20235;-96
2021/11/16 00:08:49;;;;;;;;;;;;;;;6.64;87.73;99303.44;1750091;82;21856;-96
2021/11/16 00:11:15;;;;;;;;;;;;;;;6.67;87.72;99308.05;1750267;82;20903;-96
2021/11/16 00:13:41;;;;;;;;;;;;;;;6.68;87.73;99304.55;1749470;82;24541;-95
2021/11/16 00:16:08;;;;;;;;;;;;;;;6.75;87.75;99300.40;1749395;82;20171;-95
2021/11/16 00:18:35;;;;;;;;;;;;;;;6.84;87.78;99307.37;1749623;82;20195;-95
2021/11/16 00:21:03;;;;;;;;;;;;;;;6.88;87.81;99298.52;1749506;82;21960;-95
2021/11/16 00:23:36;;;;;;;;;;;;;;;6.93;87.83;99299.17;1749557;82;26065;-95
2021/11/16 00:26:04;;;;;;;;;;;;;;;6.99;87.84;99302.83;1742833;82;24906;-96
2021/11/16 00:28:30;;;;;;;;;;;;;;;7.02;87.84;99298.81;1749568;82;20191;-95
2021/11/16 00:30:56;;;;;;;;;;;;;;;6.94;87.82;99301.33;1742890;81;20250;-96
2021/11/16 00:33:23;;;;;;;;;;;;;;;6.89;87.80;99303.27;1749872;82;21706;-96
2021/11/16 00:35:50;;;;;;;;;;;;;;;6.88;87.80;99306.33;1749954;82;26026;-96
2021/11/16 00:38:18;;;;;;;;;;;;;;;6.96;87.77;99302.97;1749870;82;24478;-96
2021/11/16 00:40:45;;;;;;;;;;;;;;;6.96;87.75;99303.42;1718140;82;20143;-95
2021/11/16 00:43:11;;;;;;;;;;;;;;;6.85;87.70;99306.91;1749652;82;25178;-96
2021/11/16 00:45:39;;;;;;;;;;;;;;;6.82;87.70;99303.97;1749551;82;21819;-96
2021/11/16 00:48:06;;;;;;;;;;;;;;;6.83;87.69;99306.12;1749608;82;26116;-95
2021/11/16 00:50:32;;;;;;;;;;;;;;;6.78;87.70;99302.41;1716892;81;24471;-96
2021/11/16 00:52:58;;;;;;;;;;;;;;;6.75;87.68;99310.80;1755881;81;20186;-95
2021/11/16 00:55:24;;;;;;;;;;;;;;;6.71;87.68;99311.36;1755484;81;24971;-96
2021/11/16 00:57:50;;;;;;;;;;;;;;;6.69;87.64;99311.89;1756266;81;20812;-96
2021/11/16 01:00:17;;;;;;;;;;;;;;;6.67;87.66;99309.80;1751281;81;21213;-96
2021/11/16 01:02:44;;;;;;;;;;;;;;;6.76;87.65;99315.95;1755513;81;24591;-96
2021/11/16 01:08:21;;;;;;;;;;;;;;;6.74;87.64;99307.35;1755975;82;21269;-96
2021/11/16 01:10:48;;;;;;;;;;;;;;;6.76;87.63;99311.20;1750804;82;22043;-96
2021/11/16 01:13:16;;;;;;;;;;;;;;;6.76;87.62;99313.35;1755947;81;26130;-96
2021/11/16 01:19:07;;;;;;;;;;;;;;;6.75;87.55;99321.20;1755489;82;20186;-96
2021/11/16 01:21:32;;;;;;;;;;;;;;;6.78;87.52;99315.87;1755015;82;25144;-96
2021/11/16 01:23:58;;;;;;;;;;;;;;;6.73;87.49;99311.70;1755535;81;21761;-96
2021/11/16 01:26:24;;;;;;;;;;;;;;;6.68;87.44;99316.70;1755861;81;25963;-96
2021/11/16 01:28:50;;;;;;;;;;;;;;;6.67;87.42;99320.20;1756745;81;24497;-96
2021/11/16 01:31:17;;;;;;;;;;;;;;;6.63;87.38;99315.59;1750781;81;20484;-96
2021/11/16 01:33:49;;;;;;;;;;;;;;;6.61;87.32;99312.19;1724656;81;24984;-96
2021/11/16 01:36:13;;;;;;;;;;;;;;;6.49;87.28;99310.06;1755404;81;21840;-96
2021/11/16 01:38:40;;;;;;;;;;;;;;;6.42;87.24;99307.78;1755689;81;26038;-96
2021/11/16 01:41:06;;;;;;;;;;;;;;;6.39;87.19;99310.48;1755371;81;24409;-95
2021/11/16 01:43:32;;;;;;;;;;;;;;;6.33;87.12;99308.16;1750686;81;20249;-96
2021/11/16 01:46:00;;;;;;;;;;;;;;;6.25;87.09;99296.73;1750657;81;24937;-95
2021/11/16 01:48:26;;;;;;;;;;;;;;;6.21;87.05;99297.77;1724752;81;21750;-96
2021/11/16 01:50:52;;;;;;;;;;;;;;;6.16;87.03;99295.36;1755538;81;25956;-96
2021/11/16 01:56:30;;;;;;;;;;;;;;;6.17;86.97;99297.47;1750430;82;20450;-96
2021/11/16 01:58:59;;;;;;;;;;;;;;;6.13;86.99;99291.55;1748588;82;24965;-95
2021/11/16 02:01:24;;;;;;;;;;;;;;;6.18;86.99;99287.02;1749954;81;21835;-96
2021/11/16 02:03:50;;;;;;;;;;;;;;;6.22;86.99;99284.70;1750340;82;26021;-96
2021/11/16 02:06:18;;;;;;;;;;;;;;;6.16;87.01;99281.06;1750078;82;24631;-96
2021/11/16 02:08:44;;;;;;;;;;;;;;;6.06;86.99;99282.29;1749964;82;20219;-96
2021/11/16 02:11:10;;;;;;;;;;;;;;;5.99;86.95;99278.25;1750412;82;25031;-96
2021/11/16 02:13:37;;;;;;;;;;;;;;;5.93;86.92;99276.33;1750195;82;21878;-96
2021/11/16 02:16:03;;;;;;;;;;;;;;;5.86;86.90;99271.78;1750147;82;21013;-96
2021/11/16 02:18:29;;;;;;;;;;;;;;;5.86;86.89;99270.48;1743309;82;24862;-95
2021/11/16 02:20:55;;;;;;;;;;;;;;;5.86;86.88;99269.18;1749485;82;20254;-96
2021/11/16 02:23:22;;;;;;;;;;;;;;;5.98;86.93;99265.31;1716991;82;24934;-95
2021/11/16 02:29:10;;;;;;;;;;;;;;;6.15;87.00;99266.82;1750464;82;22097;-95
2021/11/16 02:31:37;;;;;;;;;;;;;;;6.19;87.02;99270.53;1717480;82;25589;-96
2021/11/16 02:34:04;;;;;;;;;;;;;;;6.23;87.05;99272.55;1742776;82;20190;-95
2021/11/16 02:36:31;;;;;;;;;;;;;;;6.26;87.06;99273.30;1749849;82;25078;-96
2021/11/16 02:38:58;;;;;;;;;;;;;;;6.26;87.07;99269.40;1749975;82;21762;-96
2021/11/16 02:41:31;;;;;;;;;;;;;;;6.20;87.05;99269.63;1749771;82;26360;-96
2021/11/16 02:43:53;;;;;;;;;;;;;;;6.13;87.05;99263.42;1749059;82;24466;-96
2021/11/16 02:46:19;;;;;;;;;;;;;;;6.14;87.03;99256.02;1749932;82;20150;-96
2021/11/16 02:48:45;;;;;;;;;;;;;;;6.07;87.04;99255.41;1750015;82;20269;-96
2021/11/16 02:51:11;;;;;;;;;;;;;;;6.06;87.02;99254.16;1750126;82;21831;-96
2021/11/16 02:56:48;;;;;;;;;;;;;;;5.92;87.00;99249.50;1745894;82;20550;-96
2021/11/16 02:59:14;;;;;;;;;;;;;;;5.79;86.95;99245.63;1749117;82;20171;-96
2021/11/16 03:01:41;;;;;;;;;;;;;;;5.77;86.91;99243.56;1723321;82;25026;-96
2021/11/16 03:04:07;;;;;;;;;;;;;;;5.69;86.86;99252.08;1745026;82;22581;-95
2021/11/16 03:06:33;;;;;;;;;;;;;;;5.58;86.81;99243.39;1744937;82;25939;-96
2021/11/16 03:09:04;;;;;;;;;;;;;;;5.57;86.79;99245.58;1744913;82;24469;-96
2021/11/16 03:11:28;;;;;;;;;;;;;;;5.66;86.78;99251.76;1744050;82;20245;-96
2021/11/16 03:13:54;;;;;;;;;;;;;;;5.71;86.76;99252.43;1745187;82;24885;-96
2021/11/16 03:16:21;;;;;;;;;;;;;;;5.77;86.80;99247.02;1745617;82;22208;-96
2021/11/16 03:18:49;;;;;;;;;;;;;;;5.75;86.80;99251.85;1749631;82;25819;-95
2021/11/16 03:21:15;;;;;;;;;;;;;;;5.72;86.81;99249.38;1744759;82;24509;-96
2021/11/16 03:23:43;;;;;;;;;;;;;;;5.78;86.81;99246.08;1745090;82;20196;-96
2021/11/16 03:26:09;;;;;;;;;;;;;;;5.84;86.84;99243.25;1745272;82;25104;-96
2021/11/16 03:28:38;;;;;;;;;;;;;;;5.80;86.84;99249.48;1745082;82;21694;-96
2021/11/16 03:33:39;;;;;;;;;;;;;;;5.81;86.84;99256.38;1714487;82;24522;-96
2021/11/16 03:36:06;;;;;;;;;;;;;;;5.86;86.84;99247.11;1745126;82;20281;-96
2021/11/16 03:38:32;;;;;;;;;;;;;;;5.94;86.83;99248.16;1744929;82;24957;-96
2021/11/16 03:40:59;;;;;;;;;;;;;;;5.97;86.86;99248.02;1745076;82;21845;-96
2021/11/16 03:43:25;;;;;;;;;;;;;;;5.95;86.86;99251.97;1744821;82;26022;-96
2021/11/16 03:45:52;;;;;;;;;;;;;;;5.87;86.84;99242.34;1722839;82;24666;-95
2021/11/16 03:48:19;;;;;;;;;;;;;;;5.82;86.84;99245.53;1745699;82;20167;-96
2021/11/16 03:50:45;;;;;;;;;;;;;;;5.79;86.80;99243.88;1723771;82;25015;-96
2021/11/16 03:53:11;;;;;;;;;;;;;;;5.82;86.82;99245.09;1747554;81;21661;-96
2021/11/16 03:55:40;;;;;;;;;;;;;;;5.79;86.83;99242.59;1749678;82;26233;-95
2021/11/16 03:58:06;;;;;;;;;;;;;;;5.73;86.83;99240.66;1749564;82;24712;-96
2021/11/16 04:00:34;;;;;;;;;;;;;;;5.68;86.82;99242.59;1749925;82;20406;-96
2021/11/16 04:03:01;;;;;;;;;;;;;;;5.60;86.78;99238.14;1750196;82;25017;-96
2021/11/16 04:05:28;;;;;;;;;;;;;;;5.50;86.76;99240.69;1750071;82;21756;-96
2021/11/16 04:07:54;;;;;;;;;;;;;;;5.40;86.73;99250.08;1750170;82;25969;-96
2021/11/16 04:10:22;;;;;;;;;;;;;;;5.37;86.72;99246.77;1749831;82;24489;-96
2021/11/16 04:12:49;;;;;;;;;;;;;;;5.40;86.70;99249.27;1749805;82;20246;-96
2021/11/16 04:15:16;;;;;;;;;;;;;;;5.44;86.71;99250.84;1717160;82;25132;-96
2021/11/16 04:17:43;;;;;;;;;;;;;;;5.60;86.77;99239.45;1717599;82;21899;-96
2021/11/16 04:20:11;;;;;;;;;;;;;;;5.66;86.84;99243.97;1750595;82;25981;-95
2021/11/16 04:22:37;;;;;;;;;;;;;;;5.65;86.91;99237.08;1742385;82;24756;-96
2021/11/16 04:25:05;;;;;;;;;;;;;;;5.63;86.95;99234.13;1750076;82;20242;-96
2021/11/16 04:27:31;;;;;;;;;;;;;;;5.55;86.98;99227.09;1750385;82;24985;-96
2021/11/16 04:29:58;;;;;;;;;;;;;;;5.52;86.98;99229.78;1749689;82;22183;-95
2021/11/16 04:32:24;;;;;;;;;;;;;;;5.47;86.99;99228.66;1750066;82;26131;-95
2021/11/16 04:34:50;;;;;;;;;;;;;;;5.51;87.00;99228.11;1750013;82;24570;-96
2021/11/16 04:37:16;;;;;;;;;;;;;;;5.49;87.01;99234.65;1743396;82;20226;-96
2021/11/16 04:39:42;;;;;;;;;;;;;;;5.48;87.05;99227.30;1743449;81;20546;-96
2021/11/16 04:42:09;;;;;;;;;;;;;;;5.43;87.05;99227.08;1749784;82;21846;-95
2021/11/16 04:44:37;;;;;;;;;;;;;;;5.38;87.04;99236.34;1743448;81;27303;-96
2021/11/16 04:47:03;;;;;;;;;;;;;;;5.33;87.05;99236.95;1750066;82;24461;-96
2021/11/16 04:49:35;;;;;;;;;;;;;;;5.28;87.04;99245.36;1718329;82;20251;-96
2021/11/16 05:05:03;;;;;;;;;;;;;;;5.46;87.22;99245.13;1744776;82;24993;-96
2021/11/16 05:07:31;;;;;;;;;;;;;;;5.46;87.25;99249.87;1723193;82;21980;-96
2021/11/16 05:09:58;;;;;;;;;;;;;;;5.46;87.27;99244.67;1745446;82;26003;-96
2021/11/16 05:12:26;;;;;;;;;;;;;;;5.45;87.31;99239.08;1744717;82;24354;-96
2021/11/16 05:14:54;;;;;;;;;;;;;;;5.46;87.34;99242.08;1747009;82;20195;-96
2021/11/16 05:17:21;;;;;;;;;;;;;;;5.41;87.34;99245.30;1746326;82;24974;-96
2021/11/16 05:19:47;;;;;;;;;;;;;;;5.33;87.35;99243.44;1748910;82;21778;-96
2021/11/16 05:22:13;;;;;;;;;;;;;;;5.29;87.34;99248.80;1745468;82;26143;-96
2021/11/16 05:24:39;;;;;;;;;;;;;;;5.30;87.33;99253.91;1722690;82;24600;-96
2021/11/16 05:27:06;;;;;;;;;;;;;;;5.37;87.34;99248.06;1744873;82;20136;-96
2021/11/16 05:29:32;;;;;;;;;;;;;;;5.45;87.39;99248.17;1744898;82;24969;-95
2021/11/16 05:31:58;;;;;;;;;;;;;;;5.54;87.42;99251.34;1744745;82;21840;-95
2021/11/16 05:34:24;;;;;;;;;;;;;;;5.62;87.48;99241.55;1746011;82;25973;-96
2021/11/16 05:36:51;;;;;;;;;;;;;;;5.62;87.51;99241.55;1745193;82;24395;-96
2021/11/16 05:39:17;;;;;;;;;;;;;;;5.57;87.52;99244.28;1744999;82;20155;-96
2021/11/16 05:41:44;;;;;;;;;;;;;;;5.59;87.53;99240.34;1745239;82;25012;-96
2021/11/16 05:44:10;;;;;;;;;;;;;;;5.55;87.53;99243.96;1745245;82;22146;-96
2021/11/16 05:46:36;;;;;;;;;;;;;;;5.51;87.52;99242.39;1745093;82;25955;-96
2021/11/16 05:49:02;;;;;;;;;;;;;;;5.57;87.51;99251.22;1745214;82;24575;-96
2021/11/16 05:51:29;;;;;;;;;;;;;;;5.67;87.55;99250.01;1746107;82;20175;-96
2021/11/16 05:53:57;;;;;;;;;;;;;;;5.64;87.55;99257.89;1747514;80;25099;-96
2021/11/16 05:56:26;;;;;;;;;;;;;;;5.65;87.54;99252.66;1750142;82;21745;-96
2021/11/16 05:58:53;;;;;;;;;;;;;;;5.72;87.56;99251.53;1749492;82;26187;-96
2021/11/16 06:01:21;;;;;;;;;;;;;;;5.77;87.58;99250.91;1750080;82;24445;-96
2021/11/16 06:03:51;;;;;;;;;;;;;;;5.74;87.58;99256.64;1717178;82;20243;-96
2021/11/16 06:06:15;;;;;;;;;;;;;;;5.71;87.57;99258.07;1750318;82;24976;-96
2021/11/16 06:08:42;;;;;;;;;;;;;;;5.74;87.59;99254.05;1749532;81;20191;-96
2021/11/16 06:11:09;;;;;;;;;;;;;;;5.70;87.58;99257.22;1749820;82;25972;-96
2021/11/16 06:13:35;;;;;;;;;;;;;;;5.66;87.53;99260.84;1749570;82;24423;-96
2021/11/16 06:16:01;;;;;;;;;;;;;;;5.66;87.53;99265.19;1749867;82;20171;-96
2021/11/16 06:18:27;;;;;;;;;;;;;;;5.58;87.51;99263.31;1750105;82;20229;-96
2021/11/16 06:20:54;;;;;;;;;;;;;;;5.48;87.44;99267.99;1743015;82;21896;-96
2021/11/16 06:23:21;;;;;;;;;;;;;;;5.39;87.41;99275.67;1750940;82;25993;-96
2021/11/16 06:25:47;;;;;;;;;;;;;;;5.35;87.37;99274.51;1743094;82;24594;-96
2021/11/16 06:28:13;;;;;;;;;;;;;;;5.37;87.33;99278.76;1750164;82;20163;-96
2021/11/16 06:30:40;;;;;;;;;;;;;;;5.35;87.32;99274.51;1750016;82;24957;-96
2021/11/16 06:33:08;;;;;;;;;;;;;;;5.32;87.32;99286.31;1750288;82;21753;-96
2021/11/16 06:35:34;;;;;;;;;;;;;;;5.25;87.28;99283.08;1750652;82;25963;-96
2021/11/16 06:38:00;;;;;;;;;;;;;;;5.22;87.24;99284.49;1750256;82;24448;-96
2021/11/16 06:40:26;;;;;;;;;;;;;;;5.20;87.23;99283.69;1750552;82;20234;-96
2021/11/16 06:46:14;;;;;;;;;;;;;;;5.04;87.18;99279.92;1750680;82;20167;-96
2021/11/16 06:48:40;;;;;;;;;;;;;;;4.94;87.14;99282.44;1750413;82;26018;-96
2021/11/16 06:51:07;;;;;;;;;;;;;;;4.89;87.09;99285.19;1750681;82;24421;-96
2021/11/16 06:56:49;;;;;;;;;;;;;;;4.77;87.03;99294.66;1751061;80;21283;-96
2021/11/16 07:02:39;;;;;;;;;;;;;;;4.69;86.99;99278.48;1754096;82;22090;-95
2021/11/16 07:05:09;;;;;;;;;;;;;;;4.77;87.02;99275.21;1754346;81;24551;-96
2021/11/16 07:07:45;;;;;;;;;;;;;;;4.73;87.03;99285.30;1748750;81;20167;-96
2021/11/16 07:10:15;;;;;;;;;;;;;;;4.74;87.05;99279.66;1753625;82;25110;-95
2021/11/16 07:12:41;;;;;;;;;;;;;;;4.71;87.07;99284.93;1753361;82;21719;-95
2021/11/16 07:15:07;;;;;;;;;;;;;;;4.67;87.07;99284.64;1753643;82;26177;-95
2021/11/16 07:17:33;;;;;;;;;;;;;;;4.61;87.07;99286.98;1698846;82;24441;-96
2021/11/16 07:19:59;;;;;;;;;;;;;;;4.68;87.10;99280.71;1722484;82;20171;-95
2021/11/16 07:22:27;;;;;;;;;;;;;;;4.77;87.16;99283.44;1749204;81;25268;-96
2021/11/16 07:25:03;;;;;;;;;;;;;;;4.81;87.20;99283.28;1754329;82;21916;-96
2021/11/16 07:27:42;;;;;;;;;;;;;;;4.86;87.24;99282.67;1753761;82;26161;-96
2021/11/16 07:30:10;;;;;;;;;;;;;;;4.84;87.27;99279.75;1753483;82;25678;-96
2021/11/16 07:37:50;;;;;;;;;;;;;;;5.06;87.41;99271.65;1685300;80;20663;-94
2021/11/16 07:40:16;;;;;;;;;;;;;;;5.13;87.45;99267.11;1757048;80;26037;-96
2021/11/16 07:42:51;;;;;;;;;;;;;;;5.13;87.52;99273.11;1694360;83;24444;-96
2021/11/16 07:45:17;;;;;;;;;;;;;;;5.19;87.57;99270.31;1683257;84;20216;-96
2021/11/16 07:47:46;;;;;;;;;;;;;;;5.24;87.63;99266.25;1667181;84;24944;-96
2021/11/16 07:50:14;;;;;;;;;;;;;;;5.25;87.66;99263.61;1706308;83;21685;-96
2021/11/16 07:52:40;;;;;;;;;;;;;;;5.20;87.71;99255.59;1757669;81;26072;-96
2021/11/16 07:55:06;;;;;;;;;;;;;;;5.17;87.72;99263.05;1730069;81;24356;-96
2021/11/16 07:57:34;;;;;;;;;;;;;;;5.16;87.71;99263.95;1757881;81;20197;-96
2021/11/16 08:00:02;;;;;;;;;;;;;;;5.13;87.68;99264.03;1755933;80;25024;-96
2021/11/16 08:06:07;;;;;;;;;;;;;;;5.07;87.64;99259.08;1756890;81;22070;-96
2021/11/16 08:11:10;;;;;;;;;;;;;;;5.06;87.64;99250.90;1757195;81;20254;-96
2021/11/16 08:13:35;;;;;;;;;;;;;;;5.10;87.63;99252.48;1757233;80;25106;-96
2021/11/16 08:16:09;;;;;;;;;;;;;;;5.13;87.64;99251.54;1757072;81;21954;-95
2021/11/16 08:18:43;;;;;;;;;;;;;;;5.14;87.65;99251.46;1694032;83;25961;-96
2021/11/16 08:21:10;;;;;;;;;;;;;;;5.21;87.69;99249.06;1692803;85;24481;-96
2021/11/16 08:23:38;;;;;;;;;;;;;;;5.29;87.73;99247.02;1682405;84;20538;-95
2021/11/16 08:26:04;;;;;;;;;;;;;;;5.36;87.78;99246.36;1730605;81;24961;-94
2021/11/16 08:28:32;;;;;;;;;;;;;;;5.44;87.83;99236.56;1757336;81;21788;-95
2021/11/16 08:30:58;;;;;;;;;;;;;;;5.60;87.90;99244.19;1756906;80;26150;-95
2021/11/16 08:33:27;;;;;;;;;;;;;;;5.68;87.98;99240.84;1757153;81;20294;-96
2021/11/16 08:35:52;;;;;;;;;;;;;;;5.69;88.02;99235.20;1729802;80;20157;-95
2021/11/16 08:38:18;;;;;;;;;;;;;;;5.66;88.04;99234.88;1754017;81;24966;-95
2021/11/16 08:40:46;;;;;;;;;;;;;;;5.67;88.06;99227.48;1754040;82;21787;-96
2021/11/16 08:43:17;;;;;;;;;;;;;;;5.72;88.08;99235.95;1753753;82;26773;-95
2021/11/16 08:45:48;;;;;;;;;;;;;;;5.76;88.08;99232.78;1754294;82;24400;-96
2021/11/16 08:48:14;;;;;;;;;;;;;;;5.72;88.07;99226.86;1714204;83;20233;-95
2021/11/16 08:50:44;;;;;;;;;;;;;;;5.68;88.05;99225.26;1755224;81;21979;-96
2021/11/16 08:53:15;;;;;;;;;;;;;;;5.66;88.04;99228.39;1727891;83;21950;-96
2021/11/16 08:55:41;;;;;;;;;;;;;;;5.65;88.00;99227.98;1727496;83;26029;-96
2021/11/16 09:01:17;;;;;;;;;;;;;;;5.66;87.99;99228.39;1727701;83;20661;-96
2021/11/16 09:03:45;;;;;;;;;;;;;;;5.69;87.97;99226.11;1727589;83;25231;-96
2021/11/16 09:06:13;;;;;;;;;;;;;;;5.76;87.98;99227.58;1727649;83;21863;-95
2021/11/16 09:08:39;;;;;;;;;;;;;;;5.76;88.00;99219.79;1728164;81;25985;-95
2021/11/16 09:11:13;;;;;;;;;;;;;;;5.74;88.02;99221.14;1727617;83;24490;-96
2021/11/16 09:13:39;;;;;;;;;;;;;;;5.76;88.02;99222.39;1756375;81;20219;-95
2021/11/16 09:16:07;;;;;;;;;;;;;;;5.80;88.04;99227.41;1727733;83;25054;-96
2021/11/16 09:18:36;;;;;;;;;;;;;;;5.85;88.06;99227.22;1727796;83;22003;-96
2021/11/16 09:21:06;;;;;;;;;;;;;;;5.87;88.08;99224.16;1726560;81;21315;-95
2021/11/16 09:23:37;;;;;;;;;;;;;;;5.91;88.14;99220.53;1727326;83;24537;-94
2021/11/16 09:26:15;;;;;;;;;;;;;;;5.92;88.14;99217.03;1727426;83;20287;-95
2021/11/16 09:28:41;;;;;;;;;;;;;;;5.97;88.17;99221.59;1727013;83;25117;-96
2021/11/16 09:31:17;;;;;;;;;;;;;;;5.98;88.19;99214.20;1727819;81;21934;-96
2021/11/16 09:33:43;;;;;;;;;;;;;;;6.02;88.23;99212.32;1727460;83;26178;-95
2021/11/16 09:36:14;;;;;;;;;;;;;;;6.03;88.23;99208.37;1727541;83;24584;-94
2021/11/16 09:38:43;;;;;;;;;;;;;;;6.04;88.25;99210.52;1728846;82;20175;-96
2021/11/16 09:41:11;;;;;;;;;;;;;;;6.08;88.28;99206.44;1735106;82;25060;-95
2021/11/16 09:43:37;;;;;;;;;;;;;;;6.11;88.32;99207.59;1736578;81;22072;-96
2021/11/16 09:46:10;;;;;;;;;;;;;;;6.15;88.36;99208.34;1735369;82;21012;-95
2021/11/16 09:48:38;;;;;;;;;;;;;;;6.16;88.39;99207.00;1735705;81;24621;-96
2021/11/16 09:51:14;;;;;;;;;;;;;;;6.19;88.40;99206.02;1735118;82;20149;-95
2021/11/16 09:53:41;;;;;;;;;;;;;;;6.25;88.43;99205.32;1734974;82;25096;-96
2021/11/16 09:56:18;;;;;;;;;;;;;;;6.29;88.48;99192.59;1735328;82;21746;-96
2021/11/16 09:58:46;;;;;;;;;;;;;;;6.33;88.49;99187.28;1734811;81;21572;-96
2021/11/16 10:01:26;;;;;;;;;;;;;;;6.37;88.54;99190.98;1756043;81;24494;-95
2021/11/16 10:04:03;;;;;;;;;;;;;;;6.41;88.58;99189.09;1732792;81;20561;-94
2021/11/16 10:06:30;;;;;;;;;;;;;;;6.44;88.61;99190.25;1732377;81;24951;-96
2021/11/16 10:08:56;;;;;;;;;;;;;;;6.46;88.65;99181.50;1735624;82;21731;-96
2021/11/16 10:11:24;;;;;;;;;;;;;;;6.47;88.66;99183.20;1755531;81;23231;-96
2021/11/16 10:13:50;;;;;;;;;;;;;;;6.45;88.67;99176.36;1756670;81;20309;-95
2021/11/16 10:16:22;;;;;;;;;;;;;;;6.42;88.69;99177.80;1735593;82;20176;-96
2021/11/16 10:18:48;;;;;;;;;;;;;;;6.38;88.67;99173.19;1735745;82;20319;-96
2021/11/16 10:21:15;;;;;;;;;;;;;;;6.36;88.67;99167.64;1736081;82;20235;-95
2021/11/16 10:23:43;;;;;;;;;;;;;;;6.32;88.67;99164.79;1735485;82;25982;-96
2021/11/16 10:26:10;;;;;;;;;;;;;;;6.33;88.66;99164.70;1735361;82;24595;-96
2021/11/16 10:28:38;;;;;;;;;;;;;;;6.33;88.65;99159.50;1734903;82;20172;-96
2021/11/16 10:31:05;;;;;;;;;;;;;;;6.35;88.67;99156.40;1736003;82;24980;-94
2021/11/16 10:33:39;;;;;;;;;;;;;;;6.42;88.70;99155.70;1735674;82;21866;-96
2021/11/16 10:36:10;;;;;;;;;;;;;;;6.44;88.72;99152.55;1730563;82;27326;-96
2021/11/16 10:38:38;;;;;;;;;;;;;;;6.45;88.76;99147.75;1735354;81;24529;-96
2021/11/16 10:41:05;;;;;;;;;;;;;;;6.49;88.75;99146.26;1735369;82;20147;-95
2021/11/16 10:43:39;;;;;;;;;;;;;;;6.54;88.80;99142.19;1734684;82;25243;-96
2021/11/16 10:46:11;;;;;;;;;;;;;;;6.57;88.83;99151.15;1755989;80;21906;-96
2021/11/16 10:48:38;;;;;;;;;;;;;;;6.62;88.87;99146.59;1736001;82;25918;-96
2021/11/16 10:51:06;;;;;;;;;;;;;;;6.67;88.89;99138.14;1735458;82;24467;-95
2021/11/16 10:53:33;;;;;;;;;;;;;;;6.69;88.93;99135.88;1735616;82;20172;-94
2021/11/16 10:56:00;;;;;;;;;;;;;;;6.71;88.96;99133.19;1735080;82;24944;-96
2021/11/16 10:58:28;;;;;;;;;;;;;;;6.75;88.97;99133.47;1735597;82;21947;-96
2021/11/16 11:00:58;;;;;;;;;;;;;;;6.78;89.01;99125.52;1736266;81;25982;-96
2021/11/16 11:03:28;;;;;;;;;;;;;;;6.77;89.02;99121.67;1692543;85;24448;-96
2021/11/16 11:05:56;;;;;;;;;;;;;;;6.84;89.03;99122.66;1735282;82;20478;-95
2021/11/16 11:08:30;;;;;;;;;;;;;;;6.89;89.05;99130.25;1735679;82;24963;-96
2021/11/16 11:10:56;;;;;;;;;;;;;;;6.91;89.06;99124.09;1735283;82;22230;-95
2021/11/16 11:13:23;;;;;;;;;;;;;;;6.97;89.08;99122.97;1735570;82;21071;-95
2021/11/16 11:15:49;;;;;;;;;;;;;;;7.04;89.13;99118.70;1735316;82;24526;-95
2021/11/16 11:18:30;;;;;;;;;;;;;;;7.11;89.15;99112.78;1735812;82;20227;-94
2021/11/16 11:21:00;;;;;;;;;;;;;;;7.15;89.17;99111.27;1735543;81;25140;-96
2021/11/16 11:23:27;;;;;;;;;;;;;;;7.20;89.20;99105.84;1735786;82;22255;-94
2021/11/16 11:25:56;;;;;;;;;;;;;;;7.25;89.21;99103.06;1735260;82;25969;-95
2021/11/16 11:28:36;;;;;;;;;;;;;;;7.30;89.22;99099.33;1738203;81;24417;-95
2021/11/16 11:31:03;;;;;;;;;;;;;;;7.35;89.24;99098.66;1735125;82;20188;-94
2021/11/16 11:33:48;;;;;;;;;;;;;;;7.41;89.24;99094.47;1735273;82;25842;-96
2021/11/16 11:36:19;;;;;;;;;;;;;;;7.45;89.24;99088.20;1735684;82;22020;-95
2021/11/16 11:38:45;;;;;;;;;;;;;;;7.48;89.21;99078.92;1730768;80;26042;-94
2021/11/16 11:41:11;;;;;;;;;;;;;;;7.50;89.20;99079.71;1727786;83;24373;-95
2021/11/16 11:43:38;;;;;;;;;;;;;;;7.56;89.18;99078.13;1727939;83;20222;-94
2021/11/16 11:46:04;;;;;;;;;;;;;;;7.61;89.14;99078.36;1727885;83;24927;-96
2021/11/16 11:48:30;;;;;;;;;;;;;;;7.65;89.11;99081.19;1756376;81;22172;-96
2021/11/16 11:50:57;;;;;;;;;;;;;;;7.71;89.09;99080.45;1727577;83;20783;-96
2021/11/16 11:53:29;;;;;;;;;;;;;;;7.77;89.09;99074.09;1727566;83;24701;-95
2021/11/16 11:55:57;;;;;;;;;;;;;;;7.83;89.07;99075.95;1727538;83;20351;-96
2021/11/16 11:58:24;;;;;;;;;;;;;;;7.88;89.07;99060.09;1727541;83;25011;-96
2021/11/16 12:00:57;;;;;;;;;;;;;;;7.94;89.05;99062.40;1738054;82;20170;-94
2021/11/16 12:03:23;;;;;;;;;;;;;;;7.97;89.01;99051.81;1727667;83;25930;-95
2021/11/16 12:05:50;;;;;;;;;;;;;;;8.03;88.99;99050.20;1727872;83;24637;-95
2021/11/16 12:08:16;;;;;;;;;;;;;;;8.08;88.95;99055.19;1727400;83;20339;-96
2021/11/16 12:10:44;;;;;;;;;;;;;;;8.09;88.90;99039.94;1756419;81;24982;-96
2021/11/16 12:13:11;;;;;;;;;;;;;;;8.11;88.85;99053.29;1727997;83;21977;-96
2021/11/16 12:15:38;;;;;;;;;;;;;;;8.14;88.81;99044.45;1727679;83;26053;-95
2021/11/16 12:18:04;;;;;;;;;;;;;;;8.16;88.73;99046.54;1727240;82;24595;-95
2021/11/16 12:20:35;;;;;;;;;;;;;;;8.16;88.68;99031.74;1727671;83;20200;-95
2021/11/16 12:23:02;;;;;;;;;;;;;;;8.18;88.62;99030.38;1756654;81;24778;-96
2021/11/16 12:25:28;;;;;;;;;;;;;;;8.21;88.53;99028.44;1727633;83;21993;-93
2021/11/16 12:27:54;;;;;;;;;;;;;;;8.23;88.48;99029.67;1727525;83;26746;-96
2021/11/16 12:30:21;;;;;;;;;;;;;;;8.21;88.39;99036.72;1727697;83;24522;-94
2021/11/16 12:32:51;;;;;;;;;;;;;;;8.19;88.29;99035.94;1756326;81;20231;-94
2021/11/16 12:35:21;;;;;;;;;;;;;;;8.18;88.21;99027.27;1726824;83;25066;-92
2021/11/16 12:37:56;;;;;;;;;;;;;;;8.19;88.14;99021.60;1727853;83;21986;-93
2021/11/16 12:40:33;;;;;;;;;;;;;;;8.19;88.05;99020.30;1726934;83;26047;-95
2021/11/16 12:43:18;;;;;;;;;;;;;;;8.21;87.97;99019.77;1721306;83;24506;-95
2021/11/16 12:45:46;;;;;;;;;;;;;;;8.24;87.90;99020.91;1727226;83;20227;-95
2021/11/16 12:48:14;;;;;;;;;;;;;;;8.27;87.84;99013.79;1727244;83;24989;-94
2021/11/16 12:50:51;;;;;;;;;;;;;;;8.32;87.80;99011.81;1727355;83;22217;-93
2021/11/16 12:53:20;;;;;;;;;;;;;;;8.34;87.76;99000.86;1624289;85;23164;-94
2021/11/16 12:55:48;;;;;;;;;;;;;;;8.36;87.69;98999.45;1640241;86;24470;-94
2021/11/16 12:58:25;;;;;;;;;;;;;;;8.38;87.62;99001.08;1636351;85;20481;-96
2021/11/16 13:00:52;;;;;;;;;;;;;;;8.39;87.55;98998.01;1656392;86;25180;-94
2021/11/16 13:03:39;;;;;;;;;;;;;;;8.42;87.48;99000.44;1665815;86;22058;-94
2021/11/16 13:06:13;;;;;;;;;;;;;;;8.48;87.41;99001.44;1658017;86;21212;-94
2021/11/16 13:08:41;;;;;;;;;;;;;;;8.53;87.35;98999.88;1610383;88;24470;-94
2021/11/16 13:11:07;;;;;;;;;;;;;;;8.56;87.30;98995.36;1636194;86;20223;-92
2021/11/16 13:13:35;;;;;;;;;;;;;;;8.58;87.24;98991.34;1652472;87;24977;-95
2021/11/16 13:16:08;;;;;;;;;;;;;;;8.61;87.19;98990.75;1702562;83;22274;-93
2021/11/16 13:18:37;;;;;;;;;;;;;;;8.63;87.13;98990.19;1675021;85;26687;-94
2021/11/16 13:21:20;;;;;;;;;;;;;;;8.63;87.08;98979.75;1706068;82;24352;-92
2021/11/16 13:23:51;;;;;;;;;;;;;;;8.70;87.03;98982.42;1676057;85;20300;-94
2021/11/16 13:26:24;;;;;;;;;;;;;;;8.74;86.97;98989.61;1676017;85;25051;-93
2021/11/16 13:28:56;;;;;;;;;;;;;;;8.73;86.87;98985.31;1675933;85;21981;-92
2021/11/16 13:31:21;;;;;;;;;;;;;;;8.73;86.76;98986.16;1702690;83;26230;-93
2021/11/16 13:33:49;;;;;;;;;;;;;;;8.71;86.68;98976.28;1675779;85;25279;-93
2021/11/16 13:36:16;;;;;;;;;;;;;;;8.68;86.58;98975.58;1676192;85;20644;-92
2021/11/16 13:39:02;;;;;;;;;;;;;;;8.65;86.47;98976.61;1676223;85;25059;-94
2021/11/16 13:41:47;;;;;;;;;;;;;;;8.63;86.36;98981.05;1676270;85;22155;-93
2021/11/16 13:44:31;;;;;;;;;;;;;;;8.60;86.25;98981.23;1676378;85;26000;-94
2021/11/16 13:46:59;;;;;;;;;;;;;;;8.56;86.14;98981.02;1676543;85;24424;-93
2021/11/16 13:49:27;;;;;;;;;;;;;;;8.53;86.05;98980.31;1702771;82;20232;-93
2021/11/16 13:51:53;;;;;;;;;;;;;;;8.53;85.96;98983.77;1676178;85;25056;-94
2021/11/16 13:54:19;;;;;;;;;;;;;;;8.53;85.87;98981.63;1676333;85;21993;-93
2021/11/16 13:56:45;;;;;;;;;;;;;;;8.49;85.82;98976.20;1703599;84;21610;-93
2021/11/16 14:02:21;;;;;;;;;;;;;;;8.45;85.67;98971.61;1675949;85;20568;-92